sensor_id;sensor_type;location;lat;lon;timestamp;pressure;altitude;pressure_sealevel;temperature;humidity
37020;BME280;22932;52.442;16.896;2022-10-31T00:00:31;100774.13;;;12.27;84.99
37020;BME280;22932;52.442;16.896;2022-10-31T00:03:01;100774.23;;;12.28;85.17
37020;BME280;22932;52.442;16.896;2022-10-31T00:05:30;100777.48;;;12.28;85.25
37020;BME280;22932;52.442;16.896;2022-10-31T00:07:59;100775.51;;;12.28;85.31
37020;BME280;22932;52.442;16.896;2022-10-31T00:10:28;100780.40;;;12.26;85.16
37020;BME280;22932;52.442;16.896;2022-10-31T00:12:57;100777.66;;;12.22;85.04
37020;BME280;22932;52.442;16.896;2022-10-31T00:15:27;100780.80;;;12.20;84.96
37020;BME280;22932;52.442;16.896;2022-10-31T00:17:56;100776.30;;;12.16;84.86
37020;BME280;22932;52.442;16.896;2022-10-31T00:20:25;100776.69;;;12.11;84.96
37020;BME280;22932;52.442;16.896;2022-10-31T00:22:56;100777.96;;;12.09;85.04
37020;BME280;22932;52.442;16.896;2022-10-31T00:25:27;100779.75;;;12.05;84.91
37020;BME280;22932;52.442;16.896;2022-10-31T00:27:56;100781.83;;;11.99;84.52
37020;BME280;22932;52.442;16.896;2022-10-31T00:30:26;100782.23;;;11.92;84.40
37020;BME280;22932;52.442;16.896;2022-10-31T00:32:55;100777.92;;;11.88;84.51
37020;BME280;22932;52.442;16.896;2022-10-31T00:35:24;100777.21;;;11.85;84.72
37020;BME280;22932;52.442;16.896;2022-10-31T00:37:54;100774.86;;;11.86;85.09
37020;BME280;22932;52.442;16.896;2022-10-31T00:40:23;100778.55;;;11.87;85.11
37020;BME280;22932;52.442;16.896;2022-10-31T00:42:52;100780.48;;;11.87;85.22
37020;BME280;22932;52.442;16.896;2022-10-31T00:45:22;100782.02;;;11.88;85.56
37020;BME280;22932;52.442;16.896;2022-10-31T00:47:51;100778.79;;;11.88;85.45
37020;BME280;22932;52.442;16.896;2022-10-31T00:50:20;100781.33;;;11.88;85.27
37020;BME280;22932;52.442;16.896;2022-10-31T00:52:49;100783.52;;;11.88;85.27
37020;BME280;22932;52.442;16.896;2022-10-31T00:55:19;100785.04;;;11.87;85.15
37020;BME280;22932;52.442;16.896;2022-10-31T00:57:48;100785.23;;;11.85;84.78
37020;BME280;22932;52.442;16.896;2022-10-31T01:00:18;100786.29;;;11.83;84.60
37020;BME280;22932;52.442;16.896;2022-10-31T01:02:47;100783.90;;;11.81;84.53
37020;BME280;22932;52.442;16.896;2022-10-31T01:05:17;100783.83;;;11.80;84.55
37020;BME280;22932;52.442;16.896;2022-10-31T01:07:46;100783.60;;;11.79;84.36
37020;BME280;22932;52.442;16.896;2022-10-31T01:10:15;100788.13;;;11.76;84.28
37020;BME280;22932;52.442;16.896;2022-10-31T08:03:57;100953.81;;;11.72;88.67
37020;BME280;22932;52.442;16.896;2022-10-31T08:06:26;100952.53;;;11.74;88.56
37020;BME280;22932;52.442;16.896;2022-10-31T08:08:55;100948.52;;;11.77;88.69
37020;BME280;22932;52.442;16.896;2022-10-31T08:11:24;100949.03;;;11.81;88.71
37020;BME280;22932;52.442;16.896;2022-10-31T08:13:53;100946.11;;;11.86;88.84
37020;BME280;22932;52.442;16.896;2022-10-31T08:16:23;100948.83;;;11.90;88.95
37020;BME280;22932;52.442;16.896;2022-10-31T08:18:53;100948.73;;;11.95;89.16
37020;BME280;22932;52.442;16.896;2022-10-31T08:21:23;100949.09;;;11.99;88.95
37020;BME280;22932;52.442;16.896;2022-10-31T08:23:53;100946.96;;;12.01;88.79
37020;BME280;22932;52.442;16.896;2022-10-31T08:26:22;100946.49;;;12.04;88.86
37020;BME280;22932;52.442;16.896;2022-10-31T08:28:51;100944.15;;;12.10;89.30
37020;BME280;22932;52.442;16.896;2022-10-31T08:31:22;100944.60;;;12.17;89.42
37020;BME280;22932;52.442;16.896;2022-10-31T08:33:53;100948.36;;;12.25;89.52
37020;BME280;22932;52.442;16.896;2022-10-31T08:36:22;100952.27;;;12.32;89.69
37020;BME280;22932;52.442;16.896;2022-10-31T08:38:52;100953.59;;;12.39;89.71
37020;BME280;22932;52.442;16.896;2022-10-31T08:41:21;100957.71;;;12.46;89.70
37020;BME280;22932;52.442;16.896;2022-10-31T08:43:50;100959.88;;;12.50;89.47
37020;BME280;22932;52.442;16.896;2022-10-31T08:46:22;100963.58;;;12.51;89.35
37020;BME280;22932;52.442;16.896;2022-10-31T08:48:51;100963.25;;;12.55;89.52
37020;BME280;22932;52.442;16.896;2022-10-31T08:51:20;100961.48;;;12.58;89.47
37020;BME280;22932;52.442;16.896;2022-10-31T08:53:49;100967.71;;;12.63;89.73
37020;BME280;22932;52.442;16.896;2022-10-31T08:56:18;100969.17;;;12.69;89.94
37020;BME280;22932;52.442;16.896;2022-10-31T08:58:48;100971.73;;;12.73;89.68
37020;BME280;22932;52.442;16.896;2022-10-31T09:01:17;100971.10;;;12.74;89.39
37020;BME280;22932;52.442;16.896;2022-10-31T09:03:46;100967.70;;;12.75;89.50
37020;BME280;22932;52.442;16.896;2022-10-31T09:06:15;100970.20;;;12.79;89.74
37020;BME280;22932;52.442;16.896;2022-10-31T09:08:44;100969.35;;;12.87;90.15
37020;BME280;22932;52.442;16.896;2022-10-31T09:11:14;100974.85;;;12.94;90.32
37020;BME280;22932;52.442;16.896;2022-10-31T09:13:43;100974.69;;;13.01;90.42
37020;BME280;22932;52.442;16.896;2022-10-31T09:16:12;100974.92;;;13.06;90.25
37020;BME280;22932;52.442;16.896;2022-10-31T09:18:41;100979.53;;;13.14;90.43
37020;BME280;22932;52.442;16.896;2022-10-31T09:21:10;100977.69;;;13.21;90.45
37020;BME280;22932;52.442;16.896;2022-10-31T09:23:40;100977.15;;;13.32;90.75
37020;BME280;22932;52.442;16.896;2022-10-31T09:26:09;100981.59;;;13.44;90.86
37020;BME280;22932;52.442;16.896;2022-10-31T09:28:38;100982.67;;;13.52;90.58
37020;BME280;22932;52.442;16.896;2022-10-31T09:31:07;100982.77;;;13.56;90.29
37020;BME280;22932;52.442;16.896;2022-10-31T09:33:37;100980.31;;;13.65;90.54
37020;BME280;22932;52.442;16.896;2022-10-31T09:36:06;100981.97;;;13.74;90.75
37020;BME280;22932;52.442;16.896;2022-10-31T09:38:36;100977.77;;;13.84;90.99
37020;BME280;22932;52.442;16.896;2022-10-31T09:41:14;100981.84;;;13.94;90.84
37020;BME280;22932;52.442;16.896;2022-10-31T09:43:46;100986.68;;;14.03;90.76
37020;BME280;22932;52.442;16.896;2022-10-31T09:46:24;100990.79;;;14.09;90.80
37020;BME280;22932;52.442;16.896;2022-10-31T09:49:11;100994.17;;;14.16;90.83
37020;BME280;22932;52.442;16.896;2022-10-31T09:51:48;100991.79;;;14.23;90.45
37020;BME280;22932;52.442;16.896;2022-10-31T09:54:34;100992.36;;;14.30;90.57
37020;BME280;22932;52.442;16.896;2022-10-31T09:57:07;100991.44;;;14.41;90.59
37020;BME280;22932;52.442;16.896;2022-10-31T09:59:41;100993.61;;;14.56;90.75
37020;BME280;22932;52.442;16.896;2022-10-31T10:02:19;100997.02;;;14.73;90.90
37020;BME280;22932;52.442;16.896;2022-10-31T10:04:56;100995.61;;;14.90;91.11
37020;BME280;22932;52.442;16.896;2022-10-31T10:07:37;100998.50;;;15.07;90.69
37020;BME280;22932;52.442;16.896;2022-10-31T10:10:15;101001.66;;;15.24;90.28
37020;BME280;22932;52.442;16.896;2022-10-31T10:13:01;101001.12;;;15.36;90.06
37020;BME280;22932;52.442;16.896;2022-10-31T10:15:50;100997.49;;;15.58;90.18
37020;BME280;22932;52.442;16.896;2022-10-31T10:18:30;100998.91;;;15.85;90.62
37020;BME280;22932;52.442;16.896;2022-10-31T10:21:14;100995.41;;;16.14;90.74
37020;BME280;22932;52.442;16.896;2022-10-31T10:23:59;100996.15;;;16.47;90.96
37020;BME280;22932;52.442;16.896;2022-10-31T10:26:34;100989.97;;;16.77;90.65
37020;BME280;22932;52.442;16.896;2022-10-31T10:29:17;100985.98;;;17.06;90.27
37020;BME280;22932;52.442;16.896;2022-10-31T10:31:51;100983.45;;;17.35;89.50
37020;BME280;22932;52.442;16.896;2022-10-31T10:34:23;100979.31;;;17.59;88.96
37020;BME280;22932;52.442;16.896;2022-10-31T10:36:59;100972.23;;;17.83;88.64
37020;BME280;22932;52.442;16.896;2022-10-31T10:39:32;100967.30;;;18.06;88.07
37020;BME280;22932;52.442;16.896;2022-10-31T10:42:09;100968.56;;;18.18;85.61
37020;BME280;22932;52.442;16.896;2022-10-31T10:44:58;100965.92;;;18.14;84.27
37020;BME280;22932;52.442;16.896;2022-10-31T10:47:50;100969.95;;;18.26;84.64
37020;BME280;22932;52.442;16.896;2022-10-31T10:50:27;100968.05;;;18.40;84.96
37020;BME280;22932;52.442;16.896;2022-10-31T10:53:05;100965.11;;;18.58;85.16
37020;BME280;22932;52.442;16.896;2022-10-31T10:55:40;100962.52;;;18.76;85.23
37020;BME280;22932;52.442;16.896;2022-10-31T10:58:12;100960.45;;;18.95;85.08
37020;BME280;22932;52.442;16.896;2022-10-31T11:00:50;100959.94;;;19.06;83.60
37020;BME280;22932;52.442;16.896;2022-10-31T13:52:27;100891.92;;;18.17;76.45
37020;BME280;22932;52.442;16.896;2022-10-31T13:54:57;100897.05;;;18.17;76.59
37020;BME280;22932;52.442;16.896;2022-10-31T13:57:32;100896.09;;;18.17;76.67
37020;BME280;22932;52.442;16.896;2022-10-31T14:00:22;100895.88;;;18.17;76.60
37020;BME280;22932;52.442;16.896;2022-10-31T14:02:54;100895.82;;;18.16;76.67
37020;BME280;22932;52.442;16.896;2022-10-31T14:05:27;100895.23;;;18.17;76.70
37020;BME280;22932;52.442;16.896;2022-10-31T14:08:00;100892.48;;;18.16;76.57
37020;BME280;22932;52.442;16.896;2022-10-31T14:10:32;100891.51;;;18.15;76.72
37020;BME280;22932;52.442;16.896;2022-10-31T14:13:13;100891.38;;;18.15;76.50
37020;BME280;22932;52.442;16.896;2022-10-31T14:15:53;100885.27;;;18.14;76.67
37020;BME280;22932;52.442;16.896;2022-10-31T14:18:29;100887.61;;;18.15;76.74
37020;BME280;22932;52.442;16.896;2022-10-31T14:20:59;100881.88;;;18.14;76.73
37020;BME280;22932;52.442;16.896;2022-10-31T14:23:36;100883.93;;;18.13;76.60
37020;BME280;22932;52.442;16.896;2022-10-31T14:26:30;100885.69;;;18.11;76.63
37020;BME280;22932;52.442;16.896;2022-10-31T14:29:02;100887.00;;;18.09;76.61
37020;BME280;22932;52.442;16.896;2022-10-31T14:31:35;100890.91;;;18.05;76.49
37020;BME280;22932;52.442;16.896;2022-10-31T14:34:20;100892.45;;;18.01;76.60
37020;BME280;22932;52.442;16.896;2022-10-31T14:37:08;100895.83;;;17.97;76.58
37020;BME280;22932;52.442;16.896;2022-10-31T14:39:52;100896.27;;;17.93;76.72
37020;BME280;22932;52.442;16.896;2022-10-31T14:42:39;100899.87;;;17.90;76.75
37020;BME280;22932;52.442;16.896;2022-10-31T14:45:33;100897.29;;;17.86;76.65
37020;BME280;22932;52.442;16.896;2022-10-31T14:48:25;100893.01;;;17.80;76.69
37020;BME280;22932;52.442;16.896;2022-10-31T14:51:03;100895.15;;;17.76;76.82
37020;BME280;22932;52.442;16.896;2022-10-31T14:53:48;100894.64;;;17.72;76.92
37020;BME280;22932;52.442;16.896;2022-10-31T14:56:23;100889.55;;;17.69;77.11
37020;BME280;22932;52.442;16.896;2022-10-31T14:58:55;100891.04;;;17.67;77.13
37020;BME280;22932;52.442;16.896;2022-10-31T15:01:27;100894.18;;;17.65;77.39
37020;BME280;22932;52.442;16.896;2022-10-31T15:04:00;100898.00;;;17.63;77.28
37020;BME280;22932;52.442;16.896;2022-10-31T15:06:39;100896.65;;;17.59;77.34
37020;BME280;22932;52.442;16.896;2022-10-31T15:09:26;100896.73;;;17.57;77.44
37020;BME280;22932;52.442;16.896;2022-10-31T15:11:55;100900.09;;;17.50;77.15
37020;BME280;22932;52.442;16.896;2022-10-31T15:14:26;100896.05;;;17.37;77.33
37020;BME280;22932;52.442;16.896;2022-10-31T15:16:58;100899.46;;;17.21;77.64
37020;BME280;22932;52.442;16.896;2022-10-31T15:19:30;100900.96;;;17.08;77.91
37020;BME280;22932;52.442;16.896;2022-10-31T15:22:01;100902.39;;;16.97;78.25
37020;BME280;22932;52.442;16.896;2022-10-31T15:24:35;100902.94;;;16.86;78.72
37020;BME280;22932;52.442;16.896;2022-10-31T15:27:06;100903.65;;;16.79;78.89
37020;BME280;22932;52.442;16.896;2022-10-31T15:29:49;100908.30;;;16.71;79.23
37020;BME280;22932;52.442;16.896;2022-10-31T15:32:22;100907.94;;;16.62;79.50
37020;BME280;22932;52.442;16.896;2022-10-31T15:34:52;100909.39;;;16.54;79.64
37020;BME280;22932;52.442;16.896;2022-10-31T15:37:24;100910.60;;;16.46;79.93
37020;BME280;22932;52.442;16.896;2022-10-31T15:39:54;100913.84;;;16.37;79.95
37020;BME280;22932;52.442;16.896;2022-10-31T15:42:25;100913.16;;;16.28;80.33
37020;BME280;22932;52.442;16.896;2022-10-31T15:45:01;100916.53;;;16.18;80.65
37020;BME280;22932;52.442;16.896;2022-10-31T15:47:32;100914.11;;;16.09;80.92
37020;BME280;22932;52.442;16.896;2022-10-31T15:50:01;100919.35;;;16.02;81.14
37020;BME280;22932;52.442;16.896;2022-10-31T15:52:34;100922.63;;;16.00;81.78
37020;BME280;22932;52.442;16.896;2022-10-31T15:55:14;100927.66;;;15.94;81.71
37020;BME280;22932;52.442;16.896;2022-10-31T15:57:47;100933.38;;;15.79;81.63
37020;BME280;22932;52.442;16.896;2022-10-31T16:00:28;100931.37;;;15.67;81.87
37020;BME280;22932;52.442;16.896;2022-10-31T16:03:10;100930.52;;;15.56;82.00
37020;BME280;22932;52.442;16.896;2022-10-31T16:05:49;100931.34;;;15.46;82.49
37020;BME280;22932;52.442;16.896;2022-10-31T16:08:34;100934.66;;;15.39;82.72
37020;BME280;22932;52.442;16.896;2022-10-31T16:11:21;100934.59;;;15.30;82.80
37020;BME280;22932;52.442;16.896;2022-10-31T16:13:58;100938.48;;;15.19;83.17
37020;BME280;22932;52.442;16.896;2022-10-31T16:16:29;100940.23;;;15.09;83.32
37020;BME280;22932;52.442;16.896;2022-10-31T16:19:01;100938.80;;;15.02;83.63
37020;BME280;22932;52.442;16.896;2022-10-31T16:21:33;100938.41;;;14.93;83.83
37020;BME280;22932;52.442;16.896;2022-10-31T16:24:10;100940.14;;;14.85;83.96
37020;BME280;22932;52.442;16.896;2022-10-31T16:26:46;100939.38;;;14.76;84.27
37020;BME280;22932;52.442;16.896;2022-10-31T16:29:27;100938.62;;;14.66;84.54
37020;BME280;22932;52.442;16.896;2022-10-31T16:31:57;100935.77;;;14.54;84.79
37020;BME280;22932;52.442;16.896;2022-10-31T16:34:26;100937.54;;;14.44;85.16
37020;BME280;22932;52.442;16.896;2022-10-31T16:36:55;100937.30;;;14.35;85.57
37020;BME280;22932;52.442;16.896;2022-10-31T16:39:24;100937.68;;;14.28;85.83
37020;BME280;22932;52.442;16.896;2022-10-31T16:41:56;100940.48;;;14.21;86.12
37020;BME280;22932;52.442;16.896;2022-10-31T16:44:26;100942.77;;;14.16;86.45
37020;BME280;22932;52.442;16.896;2022-10-31T16:47:11;100940.73;;;14.11;86.63
37020;BME280;22932;52.442;16.896;2022-10-31T16:49:41;100943.19;;;14.07;86.89
37020;BME280;22932;52.442;16.896;2022-10-31T16:52:10;100946.60;;;14.03;87.22
37020;BME280;22932;52.442;16.896;2022-10-31T16:54:40;100943.59;;;14.01;87.26
37020;BME280;22932;52.442;16.896;2022-10-31T16:57:15;100945.66;;;13.98;87.40
37020;BME280;22932;52.442;16.896;2022-10-31T16:59:45;100941.67;;;13.98;87.65
37020;BME280;22932;52.442;16.896;2022-10-31T17:02:17;100942.69;;;13.98;87.71
37020;BME280;22932;52.442;16.896;2022-10-31T17:04:47;100942.41;;;13.94;87.54
37020;BME280;22932;52.442;16.896;2022-10-31T17:07:16;100938.20;;;13.89;87.80
37020;BME280;22932;52.442;16.896;2022-10-31T17:09:45;100935.11;;;13.80;88.12
37020;BME280;22932;52.442;16.896;2022-10-31T17:12:18;100938.57;;;13.70;88.52
37020;BME280;22932;52.442;16.896;2022-10-31T17:14:50;100939.45;;;13.63;88.89
37020;BME280;22932;52.442;16.896;2022-10-31T17:17:20;100937.98;;;13.58;89.00
37020;BME280;22932;52.442;16.896;2022-10-31T17:19:50;100933.72;;;13.57;89.16
37020;BME280;22932;52.442;16.896;2022-10-31T17:22:19;100935.66;;;13.57;89.37
37020;BME280;22932;52.442;16.896;2022-10-31T17:24:48;100937.29;;;13.59;89.53
37020;BME280;22932;52.442;16.896;2022-10-31T17:27:17;100934.14;;;13.60;89.34
37020;BME280;22932;52.442;16.896;2022-10-31T17:29:47;100935.20;;;13.60;89.30
37020;BME280;22932;52.442;16.896;2022-10-31T17:32:17;100937.11;;;13.61;89.34
37020;BME280;22932;52.442;16.896;2022-10-31T17:34:46;100934.77;;;13.65;89.71
37020;BME280;22932;52.442;16.896;2022-10-31T17:37:15;100934.88;;;13.70;89.76
37020;BME280;22932;52.442;16.896;2022-10-31T17:39:44;100935.30;;;13.76;89.91
37020;BME280;22932;52.442;16.896;2022-10-31T17:42:14;100935.70;;;13.81;89.77
37020;BME280;22932;52.442;16.896;2022-10-31T17:44:44;100935.92;;;13.84;89.61
37020;BME280;22932;52.442;16.896;2022-10-31T17:47:13;100934.31;;;13.86;89.37
37020;BME280;22932;52.442;16.896;2022-10-31T17:49:42;100935.42;;;13.88;89.28
37020;BME280;22932;52.442;16.896;2022-10-31T17:52:11;100936.17;;;13.89;89.24
37020;BME280;22932;52.442;16.896;2022-10-31T17:54:41;100932.52;;;13.91;89.24
37020;BME280;22932;52.442;16.896;2022-10-31T17:57:10;100931.02;;;13.92;89.00
37020;BME280;22932;52.442;16.896;2022-10-31T17:59:39;100935.87;;;13.90;88.49
37020;BME280;22932;52.442;16.896;2022-10-31T18:02:09;100937.20;;;13.88;88.27
37020;BME280;22932;52.442;16.896;2022-10-31T18:04:39;100934.41;;;13.85;88.03
37020;BME280;22932;52.442;16.896;2022-10-31T18:07:08;100936.62;;;13.79;87.53
37020;BME280;22932;52.442;16.896;2022-10-31T18:09:37;100935.23;;;13.71;87.50
37020;BME280;22932;52.442;16.896;2022-10-31T18:12:07;100931.02;;;13.60;87.25
37020;BME280;22932;52.442;16.896;2022-10-31T18:14:36;100930.54;;;13.48;87.33
37020;BME280;22932;52.442;16.896;2022-10-31T18:17:05;100929.97;;;13.37;87.41
37020;BME280;22932;52.442;16.896;2022-10-31T18:19:35;100930.56;;;13.33;87.99
37020;BME280;22932;52.442;16.896;2022-10-31T18:22:05;100931.51;;;13.32;88.42
37020;BME280;22932;52.442;16.896;2022-10-31T18:24:34;100928.42;;;13.32;88.71
37020;BME280;22932;52.442;16.896;2022-10-31T18:27:03;100931.76;;;13.33;88.76
37020;BME280;22932;52.442;16.896;2022-10-31T18:29:33;100932.60;;;13.32;88.77
37020;BME280;22932;52.442;16.896;2022-10-31T18:32:02;100928.23;;;13.31;88.72
37020;BME280;22932;52.442;16.896;2022-10-31T18:34:33;100935.45;;;13.27;88.62
37020;BME280;22932;52.442;16.896;2022-10-31T18:37:03;100930.09;;;13.20;88.32
37020;BME280;22932;52.442;16.896;2022-10-31T18:39:32;100926.41;;;13.13;88.28
37020;BME280;22932;52.442;16.896;2022-10-31T18:42:02;100929.48;;;13.05;88.25
37020;BME280;22932;52.442;16.896;2022-10-31T18:44:31;100925.88;;;12.97;88.44
37020;BME280;22932;52.442;16.896;2022-10-31T18:47:01;100928.98;;;12.89;88.42
37020;BME280;22932;52.442;16.896;2022-10-31T18:49:30;100925.80;;;12.83;88.46
37020;BME280;22932;52.442;16.896;2022-10-31T18:52:00;100925.13;;;12.76;88.74
37020;BME280;22932;52.442;16.896;2022-10-31T18:54:29;100921.55;;;12.70;88.82
37020;BME280;22932;52.442;16.896;2022-10-31T18:56:59;100915.25;;;12.62;88.63
37020;BME280;22932;52.442;16.896;2022-10-31T18:59:28;100915.66;;;12.55;88.80
37020;BME280;22932;52.442;16.896;2022-10-31T19:01:57;100911.77;;;12.51;89.01
37020;BME280;22932;52.442;16.896;2022-10-31T19:04:26;100915.38;;;12.47;89.26
37020;BME280;22932;52.442;16.896;2022-10-31T19:06:56;100918.35;;;12.46;89.59
37020;BME280;22932;52.442;16.896;2022-10-31T19:09:25;100915.48;;;12.44;89.59
37020;BME280;22932;52.442;16.896;2022-10-31T19:11:56;100913.30;;;12.40;89.54
37020;BME280;22932;52.442;16.896;2022-10-31T19:14:25;100910.48;;;12.37;89.64
37020;BME280;22932;52.442;16.896;2022-10-31T19:16:54;100911.02;;;12.35;89.78
37020;BME280;22932;52.442;16.896;2022-10-31T19:19:24;100912.99;;;12.31;89.67
